Time;durP1;ratioP1;P1;durP2;ratioP2;P2;SDS_P1;SDS_P2;PMS_P1;PMS_P2;Temp;Humidity;BMP_temperature;BMP_pressure;BME280_temperature;BME280_humidity;BME280_pressure;Samples;Min_cycle;Max_cycle;Signal;HPM_P1;HPM_P2
2022/01/04 00:01:59;;;;;;;23.08;8.70;;;5.10;99.90;;;;;;5070632;28;20267;-72
2022/01/04 00:04:26;;;;;;;26.15;8.40;;;5.00;99.90;;;;;;5070652;28;20149;-72
2022/01/04 00:06:53;;;;;;;17.05;8.38;;;5.00;99.90;;;;;;5069330;28;20613;-73
2022/01/04 00:09:19;;;;;;;16.00;8.00;;;4.80;99.90;;;;;;5069283;28;20165;-73
2022/01/04 00:14:17;;;;;;;18.05;7.78;;;4.60;99.90;;;;;;5070585;28;20168;-71
2022/01/04 00:16:44;;;;;;;14.00;8.15;;;4.40;99.90;;;;;;5070259;28;20161;-72
2022/01/04 00:19:10;;;;;;;14.73;8.68;;;4.30;99.90;;;;;;5070400;28;20634;-71
2022/01/04 00:21:36;;;;;;;16.75;8.07;;;4.20;99.90;;;;;;5070278;28;20185;-72
2022/01/04 00:24:04;;;;;;;13.40;8.40;;;4.10;99.90;;;;;;5069994;28;20230;-72
2022/01/04 00:26:30;;;;;;;16.73;8.77;;;4.00;99.90;;;;;;5068759;28;20175;-72
2022/01/04 00:28:56;;;;;;;12.60;7.88;;;3.90;99.90;;;;;;5068923;28;20177;-72
2022/01/04 00:31:22;;;;;;;12.45;7.70;;;3.80;99.90;;;;;;5068907;28;20210;-71
2022/01/04 00:33:49;;;;;;;15.70;9.10;;;3.70;99.90;;;;;;5068922;28;20644;-72
2022/01/04 00:36:14;;;;;;;17.75;8.43;;;3.50;99.90;;;;;;5070118;28;20187;-72
2022/01/04 00:38:40;;;;;;;16.25;8.80;;;3.40;99.90;;;;;;5069940;28;20196;-73
2022/01/04 00:41:06;;;;;;;17.27;9.00;;;3.20;99.90;;;;;;5076646;28;20191;-72
2022/01/04 00:43:33;;;;;;;14.13;7.93;;;3.20;99.90;;;;;;5073995;28;20165;-72
2022/01/04 00:46:00;;;;;;;16.00;9.38;;;3.20;99.90;;;;;;5086793;28;20182;-72
2022/01/04 00:50:53;;;;;;;17.38;8.57;;;3.10;99.90;;;;;;5069812;28;20733;-73
2022/01/04 00:53:20;;;;;;;14.43;8.80;;;3.00;99.90;;;;;;5087003;28;20688;-71
2022/01/04 00:55:46;;;;;;;15.95;9.35;;;2.90;99.90;;;;;;5071263;28;20210;-72
2022/01/04 00:58:12;;;;;;;14.52;8.43;;;2.90;99.90;;;;;;5082747;28;20734;-72
2022/01/04 01:00:38;;;;;;;19.05;9.25;;;2.90;99.90;;;;;;5088263;28;20263;-73
2022/01/04 01:03:06;;;;;;;18.83;9.50;;;2.80;99.90;;;;;;5088433;28;20224;-72
2022/01/04 01:05:33;;;;;;;18.33;8.82;;;2.80;99.90;;;;;;5088253;28;20704;-72
2022/01/04 01:08:00;;;;;;;17.17;8.98;;;2.80;99.90;;;;;;5089628;28;20152;-72
2022/01/04 01:12:58;;;;;;;15.75;8.57;;;2.60;99.90;;;;;;5089520;28;20199;-72
2022/01/04 01:15:24;;;;;;;15.10;8.60;;;2.60;99.90;;;;;;5074641;28;20224;-72
2022/01/04 01:17:51;;;;;;;18.15;8.75;;;2.60;99.90;;;;;;5069308;28;20152;-72
2022/01/04 01:20:18;;;;;;;14.73;7.82;;;2.40;99.90;;;;;;5067913;28;20165;-71
2022/01/04 01:22:44;;;;;;;19.60;11.05;;;2.30;99.90;;;;;;5069113;28;20229;-74
2022/01/04 01:25:13;;;;;;;18.58;9.70;;;2.20;99.90;;;;;;5069271;28;20165;-74
2022/01/04 01:27:40;;;;;;;22.35;11.80;;;2.20;99.90;;;;;;5069185;28;20584;-74
2022/01/04 01:30:07;;;;;;;23.73;11.10;;;2.20;99.90;;;;;;5069190;28;20232;-71
2022/01/04 01:32:34;;;;;;;19.60;11.50;;;2.40;99.90;;;;;;5069069;28;20200;-73
2022/01/04 01:35:00;;;;;;;20.10;10.07;;;2.30;99.90;;;;;;5069137;28;20176;-72
2022/01/04 01:37:25;;;;;;;21.67;10.60;;;2.30;99.90;;;;;;5068230;28;20157;-72
2022/01/04 01:39:51;;;;;;;19.20;9.90;;;2.30;99.90;;;;;;5069060;28;20168;-71
2022/01/04 01:42:17;;;;;;;16.63;8.68;;;2.40;99.90;;;;;;5067540;28;20219;-71
2022/01/04 01:44:43;;;;;;;20.67;10.93;;;2.30;99.90;;;;;;5068816;28;20153;-71
2022/01/04 01:47:10;;;;;;;17.25;10.07;;;2.30;99.90;;;;;;5068935;28;20192;-72
2022/01/04 01:49:36;;;;;;;20.88;10.13;;;2.20;99.90;;;;;;5068952;28;20176;-71
2022/01/04 01:52:02;;;;;;;21.77;9.73;;;2.10;99.90;;;;;;5069064;28;20167;-72
2022/01/04 01:54:28;;;;;;;14.63;9.50;;;2.00;99.90;;;;;;5067731;28;20196;-72
2022/01/04 01:56:54;;;;;;;20.90;10.13;;;2.00;99.90;;;;;;5067514;28;20227;-72
2022/01/04 01:59:20;;;;;;;19.00;10.30;;;1.80;99.90;;;;;;5068696;28;20238;-72
2022/01/04 02:01:46;;;;;;;19.23;9.45;;;1.80;99.90;;;;;;5067485;28;20200;-71
2022/01/04 02:04:12;;;;;;;19.88;9.70;;;1.90;99.90;;;;;;5067627;28;20252;-72
2022/01/04 02:06:38;;;;;;;15.85;9.50;;;1.90;99.90;;;;;;5067643;28;20650;-73
2022/01/04 02:09:04;;;;;;;22.98;11.23;;;1.80;99.90;;;;;;5068884;28;20168;-72
2022/01/04 02:11:31;;;;;;;20.77;10.15;;;1.80;99.90;;;;;;5068853;28;20188;-73
2022/01/04 02:13:59;;;;;;;17.33;10.43;;;1.70;99.90;;;;;;5068883;28;20165;-74
2022/01/04 02:16:26;;;;;;;18.58;8.93;;;1.60;99.90;;;;;;5067565;28;20200;-74
2022/01/04 02:18:52;;;;;;;18.05;9.23;;;1.70;99.90;;;;;;5068845;28;20203;-74
2022/01/04 02:21:19;;;;;;;13.90;7.65;;;1.70;99.90;;;;;;5068651;28;20195;-74
2022/01/04 02:23:44;;;;;;;17.85;10.13;;;1.70;99.90;;;;;;5068696;28;20157;-72
2022/01/04 02:26:11;;;;;;;16.42;8.82;;;1.60;99.90;;;;;;5068574;28;20214;-71
2022/01/04 02:28:38;;;;;;;12.77;7.63;;;1.50;99.90;;;;;;5068652;28;20153;-73
2022/01/04 02:31:04;;;;;;;17.52;7.93;;;1.40;99.90;;;;;;5068566;28;20167;-72
2022/01/04 02:33:30;;;;;;;12.82;7.38;;;1.50;99.90;;;;;;5068605;28;20247;-74
2022/01/04 02:35:55;;;;;;;13.15;5.88;;;1.60;99.90;;;;;;5068539;28;20168;-73
2022/01/04 02:38:21;;;;;;;10.00;6.28;;;1.60;99.90;;;;;;5065941;28;20196;-73
2022/01/04 02:40:47;;;;;;;13.32;6.70;;;1.80;99.90;;;;;;5067127;28;20196;-71
2022/01/04 02:43:13;;;;;;;9.93;5.90;;;2.00;99.90;;;;;;5068547;28;20180;-72
2022/01/04 02:45:39;;;;;;;11.48;6.22;;;2.10;99.90;;;;;;5068206;28;20161;-71
2022/01/04 02:48:08;;;;;;;16.17;6.82;;;2.20;99.90;;;;;;5068382;28;20259;-71
2022/01/04 02:50:34;;;;;;;14.07;6.47;;;2.30;99.90;;;;;;5072020;28;20168;-72
2022/01/04 02:53:00;;;;;;;12.68;6.63;;;2.40;99.90;;;;;;5072081;28;20175;-73
2022/01/04 02:55:26;;;;;;;10.50;6.30;;;2.40;99.90;;;;;;5070698;28;20169;-72
2022/01/04 02:57:52;;;;;;;10.95;6.57;;;2.50;99.90;;;;;;5070320;28;20197;-71
2022/01/04 03:00:19;;;;;;;12.40;6.68;;;2.60;99.90;;;;;;5070704;28;20175;-72
2022/01/04 03:02:46;;;;;;;12.40;6.32;;;2.60;99.90;;;;;;5070496;28;20201;-74
2022/01/04 03:05:12;;;;;;;14.32;7.72;;;2.60;99.90;;;;;;5071800;28;20216;-72
2022/01/04 03:07:38;;;;;;;11.00;6.40;;;2.70;99.90;;;;;;5071730;28;20193;-72
2022/01/04 03:10:05;;;;;;;10.52;5.75;;;2.70;99.90;;;;;;5070336;28;20168;-74
2022/01/04 03:12:31;;;;;;;9.40;6.53;;;2.70;99.90;;;;;;5071714;28;20199;-74
2022/01/04 03:14:57;;;;;;;15.55;7.03;;;2.70;99.90;;;;;;5071800;28;20165;-73
2022/01/04 03:17:23;;;;;;;11.52;6.47;;;2.70;99.90;;;;;;5070171;28;20201;-72
2022/01/04 03:19:48;;;;;;;16.00;6.75;;;2.80;99.90;;;;;;5071593;28;20168;-73
2022/01/04 03:22:14;;;;;;;12.35;6.38;;;2.90;99.90;;;;;;5069197;28;20219;-73
2022/01/04 03:24:40;;;;;;;12.90;6.80;;;2.90;99.90;;;;;;5070161;28;20176;-73
2022/01/04 03:27:06;;;;;;;12.70;7.50;;;3.00;99.90;;;;;;5071244;28;20211;-73
2022/01/04 03:29:32;;;;;;;22.15;7.18;;;3.00;99.90;;;;;;5071396;28;20161;-74
2022/01/04 03:31:58;;;;;;;14.50;7.90;;;3.00;99.90;;;;;;5070108;28;20242;-74
2022/01/04 03:34:25;;;;;;;16.13;8.45;;;3.10;99.90;;;;;;5071214;28;20212;-74
2022/01/04 03:36:51;;;;;;;17.55;9.15;;;3.10;99.90;;;;;;5071148;28;20177;-74
2022/01/04 03:39:17;;;;;;;14.40;8.93;;;3.20;99.90;;;;;;5071170;28;20184;-74
2022/01/04 03:41:45;;;;;;;16.63;9.10;;;3.20;99.90;;;;;;5070980;28;20188;-73
2022/01/04 03:44:20;;;;;;;19.90;8.77;;;3.20;99.90;;;;;;5071031;28;20157;-74
2022/01/04 03:46:51;;;;;;;18.13;9.82;;;3.20;99.90;;;;;;5070798;28;20160;-73
2022/01/04 03:49:18;;;;;;;18.67;8.57;;;3.20;99.90;;;;;;5070953;28;20176;-73
2022/01/04 03:51:45;;;;;;;20.20;10.10;;;3.20;99.90;;;;;;5070968;28;20161;-73
2022/01/04 03:54:11;;;;;;;17.98;10.38;;;3.30;99.90;;;;;;5069531;28;20232;-73
2022/01/04 03:56:37;;;;;;;21.83;10.30;;;3.30;99.90;;;;;;5070852;28;20169;-74
2022/01/04 03:59:04;;;;;;;18.98;10.00;;;3.30;99.90;;;;;;5069976;28;20230;-74
2022/01/04 04:01:30;;;;;;;14.63;10.38;;;3.30;99.90;;;;;;5070582;28;20181;-72
2022/01/04 04:03:56;;;;;;;18.83;9.07;;;3.30;99.90;;;;;;5069345;28;20164;-73
2022/01/04 04:06:22;;;;;;;13.23;8.80;;;3.30;99.90;;;;;;5069329;28;20169;-73
2022/01/04 04:08:49;;;;;;;15.02;8.70;;;3.40;99.90;;;;;;5069002;28;20197;-73
2022/01/04 04:11:15;;;;;;;17.83;8.55;;;3.40;99.90;;;;;;5070398;28;20165;-73
2022/01/04 04:13:41;;;;;;;15.02;7.63;;;3.50;99.90;;;;;;5070483;28;20221;-73
2022/01/04 04:16:07;;;;;;;14.55;7.70;;;3.50;99.90;;;;;;5070383;28;20157;-73
2022/01/04 04:18:33;;;;;;;14.43;7.85;;;3.60;99.90;;;;;;5068750;28;20310;-73
2022/01/04 04:20:59;;;;;;;12.68;7.63;;;3.50;99.90;;;;;;5068952;28;20227;-73
2022/01/04 04:23:25;;;;;;;15.20;7.63;;;3.50;99.90;;;;;;5070253;28;20152;-73
2022/01/04 04:25:51;;;;;;;15.35;7.18;;;3.40;99.90;;;;;;5068972;28;20165;-73
2022/01/04 04:28:17;;;;;;;17.48;8.18;;;3.50;99.90;;;;;;5070160;28;20211;-73
2022/01/04 04:30:43;;;;;;;16.40;8.25;;;3.40;99.90;;;;;;5070138;28;20153;-74
2022/01/04 04:33:09;;;;;;;18.33;8.60;;;3.40;99.90;;;;;;5079606;28;20566;-73
2022/01/04 04:35:35;;;;;;;15.07;9.52;;;3.40;99.90;;;;;;5088796;28;20168;-72
2022/01/04 04:38:02;;;;;;;14.60;8.32;;;3.40;99.90;;;;;;5088724;28;20192;-73
2022/01/04 04:40:29;;;;;;;14.30;8.57;;;3.40;99.90;;;;;;5080089;28;20177;-73
2022/01/04 04:42:55;;;;;;;12.90;9.13;;;3.40;99.90;;;;;;5069723;28;20171;-73
2022/01/04 04:45:21;;;;;;;12.05;6.93;;;3.30;99.90;;;;;;5069844;28;20168;-73
2022/01/04 04:47:47;;;;;;;12.30;8.30;;;3.30;99.90;;;;;;5069717;28;20199;-73
2022/01/04 04:50:13;;;;;;;18.27;7.63;;;3.40;99.90;;;;;;5074242;28;20203;-71
2022/01/04 04:52:39;;;;;;;16.40;8.38;;;3.30;99.90;;;;;;5089614;28;20165;-73
2022/01/04 04:55:07;;;;;;;23.10;8.75;;;3.20;99.90;;;;;;5088255;28;20532;-75
2022/01/04 04:57:32;;;;;;;13.23;7.93;;;3.10;99.90;;;;;;5089441;28;20274;-74
2022/01/04 04:59:58;;;;;;;10.73;7.18;;;3.10;99.90;;;;;;5089503;28;20255;-75
2022/01/04 05:02:25;;;;;;;11.60;6.85;;;3.00;99.90;;;;;;5089390;28;20184;-74
2022/01/04 05:04:51;;;;;;;11.68;7.55;;;3.00;99.90;;;;;;5089562;28;20156;-72
2022/01/04 05:07:17;;;;;;;17.00;8.40;;;3.00;99.90;;;;;;5089373;28;20188;-73
2022/01/04 05:09:43;;;;;;;17.65;8.55;;;3.00;99.90;;;;;;5071472;28;20214;-71
2022/01/04 05:12:09;;;;;;;17.65;9.20;;;3.00;99.90;;;;;;5069349;28;20184;-74
2022/01/04 05:14:37;;;;;;;12.98;7.78;;;3.00;99.90;;;;;;5068008;28;20164;-73
2022/01/04 05:17:04;;;;;;;12.40;7.40;;;3.10;99.90;;;;;;5069293;28;20192;-74
2022/01/04 05:19:30;;;;;;;12.50;7.80;;;3.10;99.90;;;;;;5069196;28;20188;-73
2022/01/04 05:21:55;;;;;;;14.82;9.07;;;3.10;99.90;;;;;;5067828;28;20275;-73
2022/01/04 05:24:21;;;;;;;12.13;7.47;;;3.10;99.90;;;;;;5069290;28;20161;-74
2022/01/04 05:26:47;;;;;;;12.10;8.32;;;3.10;99.90;;;;;;5069126;28;20149;-73
2022/01/04 05:29:13;;;;;;;14.70;8.20;;;3.10;99.90;;;;;;5069034;28;20165;-71
2022/01/04 05:31:39;;;;;;;15.60;8.82;;;3.10;99.90;;;;;;5067753;28;20171;-72
2022/01/04 05:34:05;;;;;;;14.52;8.25;;;3.10;99.90;;;;;;5073817;28;20244;-73
2022/01/04 05:36:31;;;;;;;14.00;7.70;;;3.10;99.90;;;;;;5089147;28;20156;-74
2022/01/04 05:38:57;;;;;;;10.68;7.80;;;3.10;99.90;;;;;;5089053;28;20160;-74
2022/01/04 05:41:23;;;;;;;16.88;8.18;;;3.10;99.90;;;;;;5087556;28;20201;-72
2022/01/04 05:43:49;;;;;;;13.68;7.55;;;3.10;99.90;;;;;;5087747;28;20186;-72
2022/01/04 05:46:16;;;;;;;15.13;6.75;;;3.10;99.90;;;;;;5087652;28;20160;-72
2022/01/04 05:48:43;;;;;;;15.77;7.97;;;3.10;99.90;;;;;;5088859;28;20198;-74
2022/01/04 05:51:09;;;;;;;13.18;7.32;;;3.10;99.90;;;;;;5088906;28;20160;-74
2022/01/04 05:53:34;;;;;;;17.15;7.80;;;3.10;99.90;;;;;;5087587;28;20628;-72
2022/01/04 05:56:01;;;;;;;17.50;7.50;;;3.10;99.90;;;;;;5088804;28;20164;-73
2022/01/04 05:58:27;;;;;;;14.32;7.82;;;3.10;99.90;;;;;;5088793;28;20223;-74
2022/01/04 06:00:53;;;;;;;9.55;7.28;;;3.10;99.90;;;;;;5088819;28;20207;-74
2022/01/04 06:03:18;;;;;;;10.35;6.97;;;3.10;99.90;;;;;;5088847;28;20235;-72
2022/01/04 06:05:44;;;;;;;15.68;6.72;;;3.20;99.90;;;;;;5088915;28;20171;-73
2022/01/04 06:08:11;;;;;;;11.85;7.70;;;3.20;99.90;;;;;;5087275;28;20218;-72
2022/01/04 06:10:40;;;;;;;14.00;6.93;;;3.30;99.90;;;;;;5087438;28;20160;-72
2022/01/04 06:15:33;;;;;;;13.30;7.47;;;3.40;99.90;;;;;;5088793;28;20613;-73
2022/01/04 06:17:59;;;;;;;16.70;7.65;;;3.40;99.90;;;;;;5088559;28;20187;-74
2022/01/04 06:20:26;;;;;;;12.20;7.15;;;3.50;99.90;;;;;;5087112;28;20168;-72
2022/01/04 06:22:54;;;;;;;11.48;7.00;;;3.50;99.90;;;;;;5089507;28;20278;-73
2022/01/04 06:25:22;;;;;;;11.52;7.13;;;3.70;99.90;;;;;;5092351;28;20153;-72
2022/01/04 06:27:50;;;;;;;10.48;7.07;;;3.80;99.90;;;;;;5092076;28;20187;-74
2022/01/04 06:30:18;;;;;;;13.80;7.07;;;3.90;99.90;;;;;;5091020;28;20251;-74
2022/01/04 06:32:46;;;;;;;16.67;7.10;;;4.00;99.90;;;;;;5090818;28;20168;-74
2022/01/04 06:35:14;;;;;;;12.20;7.70;;;3.90;99.90;;;;;;5092181;28;20152;-74
2022/01/04 06:37:41;;;;;;;17.15;8.73;;;3.90;99.90;;;;;;5090699;28;20202;-74
2022/01/04 06:40:09;;;;;;;10.10;8.02;;;3.90;99.90;;;;;;5092130;28;20159;-72
2022/01/04 06:42:35;;;;;;;17.83;8.48;;;3.90;99.90;;;;;;5092336;28;20664;-73
2022/01/04 06:45:01;;;;;;;16.25;8.00;;;3.80;99.90;;;;;;5091869;28;20164;-73
2022/01/04 06:47:27;;;;;;;14.82;7.20;;;3.80;99.90;;;;;;5092035;28;20252;-74
2022/01/04 06:49:53;;;;;;;13.65;7.00;;;3.80;99.90;;;;;;5093725;28;20198;-74
2022/01/04 06:52:19;;;;;;;11.50;7.00;;;3.90;99.90;;;;;;5091823;28;20164;-73
2022/01/04 06:54:45;;;;;;;16.40;6.78;;;3.90;99.90;;;;;;5088881;28;20194;-73
2022/01/04 06:57:11;;;;;;;16.27;7.35;;;3.90;99.90;;;;;;5091136;28;20167;-72
2022/01/04 06:59:37;;;;;;;12.80;7.82;;;4.00;99.90;;;;;;5090687;28;20227;-72
2022/01/04 07:02:03;;;;;;;9.82;6.78;;;4.10;99.90;;;;;;5090491;28;20220;-71
2022/01/04 07:04:29;;;;;;;15.02;8.25;;;4.10;99.90;;;;;;5090458;28;20163;-74
2022/01/04 07:06:54;;;;;;;13.27;7.38;;;4.10;99.90;;;;;;5090059;28;20156;-72
2022/01/04 07:09:20;;;;;;;17.52;8.10;;;4.00;99.90;;;;;;5091784;28;20196;-73
2022/01/04 07:11:46;;;;;;;13.05;7.32;;;3.90;99.90;;;;;;5091562;28;20629;-73
2022/01/04 07:14:12;;;;;;;15.15;7.78;;;3.80;99.90;;;;;;5091586;28;20159;-74
2022/01/04 07:16:38;;;;;;;14.75;8.63;;;3.90;99.90;;;;;;5090076;28;20212;-73
2022/01/04 07:19:04;;;;;;;13.82;7.82;;;3.90;99.90;;;;;;5091330;28;20206;-74
2022/01/04 07:21:30;;;;;;;16.77;7.90;;;3.90;99.90;;;;;;5091251;28;20590;-73
2022/01/04 07:23:56;;;;;;;17.73;8.48;;;3.90;99.90;;;;;;5091462;28;20187;-74
2022/01/04 07:26:23;;;;;;;19.70;9.73;;;4.00;99.90;;;;;;5091278;28;20700;-73
2022/01/04 07:28:50;;;;;;;12.95;8.65;;;3.90;99.90;;;;;;5088903;28;20203;-73
2022/01/04 07:31:18;;;;;;;14.55;8.13;;;4.00;99.90;;;;;;5090864;28;20224;-74
2022/01/04 07:33:45;;;;;;;17.83;8.90;;;4.00;99.90;;;;;;5089265;28;20160;-75
2022/01/04 07:36:12;;;;;;;15.75;7.95;;;4.00;99.90;;;;;;5090351;28;20645;-76
2022/01/04 07:38:38;;;;;;;14.20;8.55;;;4.00;99.90;;;;;;5089621;28;20199;-76
2022/01/04 07:41:05;;;;;;;15.30;8.85;;;4.10;99.90;;;;;;5090991;28;20245;-76
2022/01/04 07:43:32;;;;;;;15.75;9.30;;;4.10;99.90;;;;;;5091027;28;20153;-75
2022/01/04 07:45:58;;;;;;;13.90;8.75;;;4.20;99.90;;;;;;5090850;28;20181;-75
2022/01/04 07:48:24;;;;;;;22.58;11.27;;;4.30;99.90;;;;;;5089709;28;20255;-76
2022/01/04 07:50:51;;;;;;;18.45;8.50;;;4.20;99.90;;;;;;5087685;28;20152;-75
2022/01/04 07:53:17;;;;;;;11.65;7.95;;;4.30;99.90;;;;;;5090532;28;20170;-75
2022/01/04 07:55:43;;;;;;;16.67;8.90;;;4.20;99.90;;;;;;5089569;28;20235;-74
2022/01/04 07:58:09;;;;;;;14.40;7.80;;;4.30;99.90;;;;;;5089236;28;20216;-75
2022/01/04 08:00:35;;;;;;;13.77;8.10;;;4.30;99.90;;;;;;5090561;28;20237;-74
2022/01/04 08:03:03;;;;;;;17.05;8.80;;;4.40;99.90;;;;;;5089315;28;20207;-74
2022/01/04 08:05:29;;;;;;;12.55;8.00;;;4.40;99.90;;;;;;5089253;28;20677;-74
2022/01/04 08:07:55;;;;;;;20.90;8.27;;;4.50;99.90;;;;;;5089154;28;20187;-75
2022/01/04 08:10:21;;;;;;;14.93;8.20;;;4.50;99.90;;;;;;5090325;28;20278;-75
2022/01/04 08:12:47;;;;;;;10.85;8.20;;;4.50;99.90;;;;;;5090582;28;20160;-75
2022/01/04 08:15:13;;;;;;;12.05;7.03;;;4.60;99.90;;;;;;5090556;28;20163;-75
2022/01/04 08:17:39;;;;;;;17.77;9.00;;;4.70;99.90;;;;;;5090195;28;20183;-74
2022/01/04 08:20:07;;;;;;;16.00;8.65;;;4.80;99.90;;;;;;5090128;28;20235;-74
2022/01/04 08:22:34;;;;;;;13.20;7.30;;;4.90;99.90;;;;;;5088774;28;20204;-75
2022/01/04 08:25:07;;;;;;;12.05;8.15;;;5.00;99.90;;;;;;5091034;28;20160;-74
2022/01/04 08:27:34;;;;;;;12.40;7.50;;;5.10;99.90;;;;;;5092346;28;20160;-73
2022/01/04 08:30:01;;;;;;;13.88;8.02;;;5.00;99.90;;;;;;5101685;28;20191;-73
2022/01/04 08:32:27;;;;;;;13.45;8.07;;;5.10;99.90;;;;;;5093274;28;20176;-73
2022/01/04 08:34:53;;;;;;;13.85;7.53;;;5.10;99.90;;;;;;5105260;28;20179;-75
2022/01/04 08:37:22;;;;;;;13.90;8.98;;;5.30;99.90;;;;;;5094488;28;20232;-73
2022/01/04 08:39:48;;;;;;;12.88;7.95;;;5.30;99.90;;;;;;5098313;28;20217;-75
2022/01/04 08:42:14;;;;;;;18.40;9.18;;;5.30;99.90;;;;;;5092856;28;20199;-75
2022/01/04 08:44:40;;;;;;;14.32;8.48;;;5.20;99.90;;;;;;5104219;28;20174;-73
2022/01/04 08:47:10;;;;;;;14.52;7.80;;;5.30;99.90;;;;;;5098025;28;20187;-74
2022/01/04 08:49:38;;;;;;;11.35;7.38;;;5.50;99.90;;;;;;5097793;28;20195;-73
2022/01/04 08:52:06;;;;;;;12.00;7.47;;;5.50;99.90;;;;;;5104616;28;20167;-74
2022/01/04 08:54:33;;;;;;;14.07;7.20;;;5.60;99.90;;;;;;5092835;28;20227;-74
2022/01/04 08:56:59;;;;;;;14.85;9.00;;;5.60;99.90;;;;;;5105697;28;20163;-73
2022/01/04 08:59:27;;;;;;;14.23;8.93;;;5.50;99.90;;;;;;5096709;28;20222;-74
2022/01/04 09:01:54;;;;;;;17.63;8.75;;;5.50;99.90;;;;;;5096571;28;20202;-74
2022/01/04 09:04:21;;;;;;;12.80;8.38;;;5.70;99.90;;;;;;5103146;28;20163;-74
2022/01/04 09:06:48;;;;;;;15.45;9.45;;;5.80;99.90;;;;;;5092599;28;20231;-74
2022/01/04 09:09:14;;;;;;;22.50;10.25;;;5.80;99.90;;;;;;5101938;28;20207;-75
2022/01/04 09:11:40;;;;;;;15.45;8.90;;;5.80;99.90;;;;;;5097822;28;20171;-73
2022/01/04 09:14:40;;;;;;;18.85;8.93;;;5.80;99.90;;;;;;5094778;28;20207;-73
2022/01/04 09:19:38;;;;;;;12.30;7.93;;;6.10;99.90;;;;;;5097702;28;20221;-73
2022/01/04 09:22:05;;;;;;;17.55;7.22;;;6.00;99.90;;;;;;5096167;28;20194;-73
2022/01/04 09:24:32;;;;;;;20.67;6.97;;;6.10;99.90;;;;;;5105855;28;20163;-73
2022/01/04 09:26:58;;;;;;;12.30;7.22;;;6.10;99.90;;;;;;5091190;28;20227;-73
2022/01/04 09:29:25;;;;;;;8.68;5.43;;;6.10;99.90;;;;;;5101432;28;20191;-74
2022/01/04 09:31:55;;;;;;;12.50;6.20;;;6.10;99.90;;;;;;5098811;28;20187;-75
2022/01/04 09:34:21;;;;;;;8.27;5.25;;;6.20;99.90;;;;;;5096202;28;20203;-74
2022/01/04 09:36:47;;;;;;;9.05;5.40;;;6.30;99.90;;;;;;5106359;28;20218;-73
2022/01/04 09:39:21;;;;;;;12.25;6.00;;;6.40;99.90;;;;;;5094914;28;20175;-74
2022/01/04 09:41:47;;;;;;;10.35;6.07;;;6.50;99.90;;;;;;5123184;28;20190;-74
2022/01/04 09:44:14;;;;;;;8.95;5.78;;;6.60;99.90;;;;;;5125325;28;20201;-74
2022/01/04 09:46:41;;;;;;;6.93;4.25;;;6.60;99.90;;;;;;5150013;28;20182;-73
2022/01/04 09:49:10;;;;;;;6.68;4.80;;;6.50;99.90;;;;;;5150011;28;20291;-74
2022/01/04 09:51:38;;;;;;;12.60;5.22;;;6.50;99.90;;;;;;5118660;28;20182;-75
2022/01/04 09:54:05;;;;;;;14.40;4.88;;;6.60;99.90;;;;;;5129153;28;20159;-73
2022/01/04 09:56:30;;;;;;;9.05;4.32;;;6.80;99.90;;;;;;5111116;28;20194;-73
2022/01/04 09:58:56;;;;;;;12.15;4.40;;;6.90;99.90;;;;;;5113885;28;20237;-72
2022/01/04 10:01:24;;;;;;;13.00;4.60;;;6.90;99.90;;;;;;5115107;28;20206;-75
2022/01/04 10:03:51;;;;;;;7.75;4.90;;;6.90;99.90;;;;;;5133615;28;20154;-71
2022/01/04 10:06:18;;;;;;;8.80;4.57;;;7.10;99.90;;;;;;5132996;28;20186;-72
2022/01/04 10:08:50;;;;;;;16.95;5.05;;;7.10;99.90;;;;;;5101864;28;20201;-72
2022/01/04 10:11:16;;;;;;;13.02;4.68;;;7.10;99.90;;;;;;5113095;28;20163;-74
2022/01/04 10:13:42;;;;;;;18.13;4.97;;;7.20;99.90;;;;;;5100635;27;20189;-74
2022/01/04 10:16:16;;;;;;;13.27;4.93;;;7.20;99.90;;;;;;5153831;27;20158;-74
2022/01/04 10:18:47;;;;;;;11.50;4.70;;;7.20;99.90;;;;;;5135363;27;20169;-74
2022/01/04 10:21:15;;;;;;;7.88;4.63;;;7.10;99.90;;;;;;5135328;27;20208;-73
2022/01/04 10:23:58;;;;;;;15.75;4.97;;;7.10;99.90;;;;;;5153891;27;20570;-75
2022/01/04 10:26:35;;;;;;;14.95;5.60;;;7.20;99.90;;;;;;5153901;27;20228;-73
2022/01/04 10:29:17;;;;;;;18.27;6.13;;;7.20;99.90;;;;;;5135226;27;20162;-74
2022/01/04 10:31:43;;;;;;;8.32;5.22;;;7.20;99.90;;;;;;5153618;27;20261;-74
2022/01/04 10:34:09;;;;;;;14.52;4.65;;;7.40;99.90;;;;;;5129385;28;20191;-74
2022/01/04 10:36:39;;;;;;;11.25;4.82;;;7.50;99.90;;;;;;5133112;28;20171;-73
2022/01/04 10:39:09;;;;;;;8.93;4.70;;;7.60;99.90;;;;;;5132751;28;20158;-73
2022/01/04 10:41:36;;;;;;;9.40;4.95;;;7.70;99.90;;;;;;5130085;28;20198;-74
2022/01/04 10:44:09;;;;;;;19.13;5.65;;;7.80;99.90;;;;;;5112258;28;20187;-73
2022/01/04 10:46:43;;;;;;;15.88;5.60;;;7.80;99.90;;;;;;5112410;28;20156;-73
2022/01/04 10:49:20;;;;;;;22.38;6.72;;;7.80;99.90;;;;;;5094048;28;20174;-74
2022/01/04 10:52:20;;;;;;;7.43;4.72;;;7.90;99.90;;;;;;5093731;28;20201;-73
2022/01/04 10:54:47;;;;;;;15.18;5.95;;;8.20;99.90;;;;;;5093599;28;20207;-74
2022/01/04 10:57:13;;;;;;;15.45;6.68;;;8.50;99.90;;;;;;5112212;28;20171;-74
2022/01/04 10:59:38;;;;;;;9.90;5.10;;;9.10;99.90;;;;;;5112035;28;20227;-74
2022/01/04 11:02:05;;;;;;;10.07;5.97;;;9.30;99.90;;;;;;5111912;28;20222;-74
2022/01/04 11:04:31;;;;;;;13.20;5.10;;;9.50;99.90;;;;;;5093841;28;20197;-74
2022/01/04 11:07:02;;;;;;;17.95;5.50;;;9.70;99.90;;;;;;5093687;28;20191;-75
2022/01/04 11:09:29;;;;;;;12.38;5.93;;;9.70;99.90;;;;;;5127168;28;20159;-74
2022/01/04 11:11:55;;;;;;;14.95;5.30;;;9.50;99.90;;;;;;5132519;28;20163;-74
2022/01/04 11:14:21;;;;;;;16.73;5.32;;;9.70;99.90;;;;;;5131088;28;20271;-74
2022/01/04 11:16:48;;;;;;;10.15;5.15;;;9.70;99.90;;;;;;5132288;28;20190;-75
2022/01/04 11:19:14;;;;;;;16.05;5.18;;;9.80;99.90;;;;;;5130700;28;20173;-73
2022/01/04 11:21:43;;;;;;;22.40;6.60;;;9.90;99.90;;;;;;5132058;28;20202;-74
2022/01/04 11:24:12;;;;;;;11.98;4.40;;;10.00;99.90;;;;;;5132259;28;20187;-74
2022/01/04 11:26:44;;;;;;;10.88;4.75;;;10.50;99.90;;;;;;5132220;28;20229;-74
2022/01/04 11:29:10;;;;;;;5.32;3.97;;;11.00;99.90;;;;;;5129518;28;20215;-74
2022/01/04 11:31:53;;;;;;;13.15;4.35;;;11.50;99.90;;;;;;5131849;28;20154;-74
2022/01/04 11:34:43;;;;;;;11.70;5.32;;;11.80;99.90;;;;;;5131750;28;20202;-74
2022/01/04 11:37:18;;;;;;;12.48;4.32;;;12.20;99.90;;;;;;5113419;28;20166;-74
2022/01/04 11:39:44;;;;;;;12.10;4.68;;;11.60;99.90;;;;;;5131706;28;20641;-75
2022/01/04 11:42:30;;;;;;;17.15;4.70;;;11.50;99.90;;;;;;5106004;28;20207;-74
2022/01/04 11:44:57;;;;;;;26.75;4.38;;;11.10;99.90;;;;;;5092939;28;20202;-75
2022/01/04 11:47:28;;;;;;;6.63;3.58;;;10.30;99.90;;;;;;5111052;28;20174;-74
2022/01/04 11:50:18;;;;;;;8.30;3.88;;;10.00;99.90;;;;;;5111192;28;20156;-74
2022/01/04 11:52:47;;;;;;;7.80;3.92;;;10.00;99.90;;;;;;5111031;28;20156;-74
2022/01/04 11:55:36;;;;;;;8.90;3.67;;;9.90;99.90;;;;;;5110781;28;20198;-74
2022/01/04 11:58:08;;;;;;;9.50;3.90;;;9.80;99.90;;;;;;5092802;28;20222;-74
2022/01/04 12:00:36;;;;;;;6.75;4.25;;;9.70;99.90;;;;;;5110898;28;20177;-75
2022/01/04 12:03:03;;;;;;;17.67;4.50;;;9.70;99.90;;;;;;5092649;28;20218;-74
2022/01/04 12:05:29;;;;;;;7.93;3.88;;;9.90;99.90;;;;;;5110780;28;20579;-75
2022/01/04 12:07:58;;;;;;;6.95;3.25;;;10.00;99.90;;;;;;5115760;27;20163;-75
2022/01/04 12:10:25;;;;;;;9.10;4.03;;;10.00;99.90;;;;;;5151757;27;20150;-74
2022/01/04 12:13:06;;;;;;;9.30;4.07;;;10.10;99.90;;;;;;5133366;27;20536;-74
2022/01/04 12:15:34;;;;;;;5.32;2.83;;;9.90;99.90;;;;;;5151752;27;20166;-74
2022/01/04 12:18:01;;;;;;;7.43;3.30;;;9.80;99.90;;;;;;5133019;27;20166;-74
2022/01/04 12:20:42;;;;;;;3.65;3.17;;;9.60;99.90;;;;;;5150930;27;20162;-74
2022/01/04 12:23:26;;;;;;;4.85;3.83;;;9.50;99.90;;;;;;5151395;27;20189;-73
2022/01/04 12:26:11;;;;;;;4.78;3.17;;;9.40;99.90;;;;;;5151507;27;20165;-74
2022/01/04 12:28:37;;;;;;;8.75;2.97;;;9.50;99.90;;;;;;5151397;27;20165;-74
2022/01/04 12:31:17;;;;;;;8.07;3.67;;;9.70;99.90;;;;;;5151193;27;20210;-74
2022/01/04 12:33:46;;;;;;;7.05;3.53;;;9.80;99.90;;;;;;5151246;27;20196;-74
2022/01/04 12:36:29;;;;;;;7.50;3.60;;;9.90;99.90;;;;;;5125204;27;20214;-74
2022/01/04 12:39:10;;;;;;;10.48;3.83;;;9.90;99.90;;;;;;5110157;28;20199;-74
2022/01/04 12:41:37;;;;;;;12.13;4.00;;;10.00;99.90;;;;;;5112153;28;20183;-73
2022/01/04 12:44:05;;;;;;;10.07;4.95;;;10.10;99.90;;;;;;5121123;28;20268;-72
2022/01/04 12:46:40;;;;;;;9.50;4.40;;;10.20;99.90;;;;;;5111843;28;20166;-74
2022/01/04 12:49:11;;;;;;;12.55;4.30;;;10.20;99.90;;;;;;5130229;28;20169;-76
2022/01/04 12:51:44;;;;;;;10.45;4.38;;;10.30;99.90;;;;;;5111842;28;20226;-75
2022/01/04 12:54:19;;;;;;;13.30;5.63;;;10.30;99.90;;;;;;5111653;28;20289;-74
2022/01/04 12:57:08;;;;;;;12.95;5.50;;;10.10;99.90;;;;;;5130173;28;20163;-75
2022/01/04 12:59:37;;;;;;;8.80;5.03;;;10.10;99.90;;;;;;5129015;28;20257;-73
2022/01/04 13:02:15;;;;;;;9.57;5.07;;;9.90;99.90;;;;;;5111532;28;20209;-73